Time;durP1;ratioP1;P1;durP2;ratioP2;P2;SDS_P1;SDS_P2;PMS_P1;PMS_P2;Temp;Humidity;BMP_temperature;BMP_pressure;BME280_temperature;BME280_humidity;BME280_pressure;Samples;Min_cycle;Max_cycle;Signal;HPM_P1;HPM_P2
2024/01/03 00:00:07;;;;;;;0.80;0.40;;;;;;;9.17;100.00;96363.47;5113644;28;20223;-74
2024/01/03 00:02:33;;;;;;;0.90;0.50;;;;;;;9.23;100.00;96370.44;5113401;28;20649;-74
2024/01/03 00:05:00;;;;;;;0.40;0.40;;;;;;;9.23;100.00;96373.88;5113792;28;20203;-74
2024/01/03 00:07:26;;;;;;;0.30;0.30;;;;;;;9.42;100.00;96372.44;5113627;28;20210;-74
2024/01/03 00:09:58;;;;;;;0.63;0.30;;;;;;;9.39;100.00;96370.31;5113667;28;20229;-74
2024/01/03 00:12:25;;;;;;;0.30;0.30;;;;;;;9.39;100.00;96354.41;5113374;28;20204;-74
2024/01/03 00:14:52;;;;;;;1.07;0.40;;;;;;;9.34;100.00;96362.31;5113233;28;20608;-74
2024/01/03 00:17:20;;;;;;;1.13;0.50;;;;;;;9.36;100.00;96362.03;5113570;28;20256;-74
2024/01/03 00:19:54;;;;;;;1.57;0.50;;;;;;;9.28;100.00;96351.91;5113153;28;20225;-74
2024/01/03 00:22:20;;;;;;;1.20;0.50;;;;;;;9.17;100.00;96358.16;5112176;28;20207;-74
2024/01/03 00:24:48;;;;;;;1.97;0.50;;;;;;;9.29;100.00;96353.50;5113988;28;20250;-74
2024/01/03 00:27:16;;;;;;;1.27;0.67;;;;;;;9.33;100.00;96368.66;5117171;28;20733;-74
2024/01/03 00:29:45;;;;;;;0.90;0.63;;;;;;;9.54;100.00;96353.72;5117208;27;20242;-73
2024/01/03 00:32:11;;;;;;;0.57;0.50;;;;;;;9.67;100.00;96353.28;5117227;28;20288;-73
2024/01/03 00:34:40;;;;;;;2.17;0.50;;;;;;;9.58;100.00;96357.47;5117109;28;20205;-73
2024/01/03 00:37:27;;;;;;;1.10;0.50;;;;;;;9.55;100.00;96350.03;5117112;28;20256;-73
2024/01/03 00:39:55;;;;;;;2.63;0.70;;;;;;;9.51;100.00;96338.31;5117031;28;20219;-73
2024/01/03 00:42:22;;;;;;;1.53;0.87;;;;;;;9.49;100.00;96329.81;5116712;28;20587;-73
2024/01/03 00:44:48;;;;;;;3.63;1.00;;;;;;;9.40;100.00;96332.13;5116923;28;20203;-73
2024/01/03 00:47:15;;;;;;;2.07;0.73;;;;;;;9.54;100.00;96337.78;5117417;28;20203;-73
2024/01/03 00:49:42;;;;;;;2.13;0.80;;;;;;;9.66;100.00;96354.34;5116335;28;20263;-73
2024/01/03 00:52:10;;;;;;;2.10;0.80;;;;;;;9.74;100.00;96373.25;5116486;28;20203;-73
2024/01/03 00:54:37;;;;;;;1.23;0.80;;;;;;;9.78;100.00;96377.00;5116860;28;20206;-73
2024/01/03 00:57:05;;;;;;;2.77;1.13;;;;;;;9.79;100.00;96383.09;5116523;28;20214;-74
2024/01/03 00:59:34;;;;;;;2.13;0.70;;;;;;;9.84;100.00;96383.94;5116742;28;20230;-73
2024/01/03 01:02:03;;;;;;;3.27;0.60;;;;;;;9.77;100.00;96374.63;5116743;27;20233;-74
2024/01/03 01:04:31;;;;;;;2.77;0.77;;;;;;;9.78;100.00;96386.81;5116754;28;20203;-74
2024/01/03 01:06:58;;;;;;;1.73;0.67;;;;;;;9.82;100.00;96380.75;5116649;28;20207;-74
2024/01/03 01:09:25;;;;;;;0.90;0.57;;;;;;;9.74;100.00;96391.81;5116358;28;20237;-73
2024/01/03 01:11:51;;;;;;;1.77;0.67;;;;;;;9.70;100.00;96389.94;5116200;28;20704;-74
2024/01/03 01:14:17;;;;;;;2.80;0.63;;;;;;;9.60;100.00;96380.03;5116452;28;20199;-74
2024/01/03 01:16:44;;;;;;;1.60;0.60;;;;;;;9.58;100.00;96386.66;5116442;28;20205;-74
2024/01/03 01:19:10;;;;;;;1.53;0.77;;;;;;;9.42;100.00;96382.28;5115967;28;20215;-74
2024/01/03 01:21:40;;;;;;;3.23;0.70;;;;;;;9.42;100.00;96392.88;5116072;28;20215;-74
2024/01/03 01:24:07;;;;;;;0.87;0.70;;;;;;;9.41;100.00;96388.63;5116321;28;20199;-74
2024/01/03 01:26:33;;;;;;;1.27;0.60;;;;;;;9.50;100.00;96397.75;5116256;28;20211;-74
2024/01/03 01:28:59;;;;;;;1.33;0.70;;;;;;;9.58;100.00;96402.56;5116020;28;20225;-74
2024/01/03 01:31:26;;;;;;;2.90;0.83;;;;;;;9.41;100.00;96401.91;5116060;28;20199;-74
2024/01/03 01:33:52;;;;;;;0.67;0.50;;;;;;;9.41;100.00;96401.91;5115967;28;20203;-74
2024/01/03 01:36:18;;;;;;;2.33;0.57;;;;;;;9.39;100.00;96403.97;5115733;28;20206;-74
2024/01/03 01:38:47;;;;;;;1.87;0.90;;;;;;;9.42;100.00;96422.06;5116420;28;20196;-74
2024/01/03 01:41:13;;;;;;;0.60;0.60;;;;;;;9.29;100.00;96403.91;5115857;28;20569;-74
2024/01/03 01:43:39;;;;;;;1.83;0.77;;;;;;;9.33;100.00;96412.94;5115824;28;20224;-75
2024/01/03 01:46:07;;;;;;;1.97;0.83;;;;;;;9.33;100.00;96410.31;5115763;28;20210;-74
2024/01/03 01:48:34;;;;;;;2.07;0.80;;;;;;;9.36;100.00;96423.03;5115366;27;20226;-74
2024/01/03 01:51:00;;;;;;;1.33;0.80;;;;;;;9.37;100.00;96433.41;5115698;28;20230;-74
2024/01/03 01:53:27;;;;;;;2.50;0.80;;;;;;;9.43;100.00;96421.00;5115758;28;20203;-74
2024/01/03 01:55:53;;;;;;;2.17;0.70;;;;;;;9.36;100.00;96426.50;5115622;28;20209;-74
2024/01/03 01:58:22;;;;;;;2.17;0.50;;;;;;;9.38;100.00;96424.41;5115313;28;20203;-74
2024/01/03 02:00:49;;;;;;;1.13;0.40;;;;;;;9.23;100.00;96429.53;5115483;28;20223;-74
2024/01/03 02:03:16;;;;;;;1.53;0.57;;;;;;;9.12;100.00;96430.50;5115250;28;20210;-74
2024/01/03 02:05:45;;;;;;;1.83;0.60;;;;;;;9.09;100.00;96430.22;5115182;28;20204;-74
2024/01/03 02:08:12;;;;;;;1.13;0.60;;;;;;;8.99;100.00;96424.78;5115046;28;20592;-74
2024/01/03 02:10:38;;;;;;;0.40;0.40;;;;;;;9.04;100.00;96435.44;5114968;28;20227;-74
2024/01/03 02:13:04;;;;;;;1.03;0.60;;;;;;;9.09;100.00;96432.84;5114950;28;20214;-74
2024/01/03 02:15:31;;;;;;;2.43;0.70;;;;;;;9.22;100.00;96432.44;5115242;28;20203;-74
2024/01/03 02:17:57;;;;;;;0.70;0.47;;;;;;;9.24;100.00;96428.50;5115131;28;20205;-74
2024/01/03 02:20:25;;;;;;;0.77;0.40;;;;;;;9.37;100.00;96432.63;5115094;28;20245;-74
2024/01/03 02:22:51;;;;;;;0.60;0.30;;;;;;;9.30;100.00;96440.78;5114621;28;20582;-73
2024/01/03 02:25:17;;;;;;;0.80;0.47;;;;;;;9.25;100.00;96434.59;5115022;28;20199;-73
2024/01/03 02:27:44;;;;;;;0.40;0.40;;;;;;;9.31;100.00;96430.94;5114982;28;20215;-73
2024/01/03 02:30:10;;;;;;;1.07;0.40;;;;;;;9.23;100.00;96431.41;5114813;28;20583;-73
2024/01/03 02:32:37;;;;;;;1.07;0.53;;;;;;;9.14;100.00;96424.97;5114915;28;20203;-74
2024/01/03 02:35:05;;;;;;;1.23;0.40;;;;;;;9.07;100.00;96430.44;5114879;28;20217;-74
2024/01/03 02:37:32;;;;;;;1.10;0.33;;;;;;;9.16;100.00;96436.09;5114890;28;20199;-74
2024/01/03 02:39:58;;;;;;;0.30;0.30;;;;;;;9.09;100.00;96440.81;5114510;28;20701;-74
2024/01/03 02:42:25;;;;;;;0.97;0.40;;;;;;;9.06;100.00;96436.78;5114382;28;20207;-74
2024/01/03 02:44:51;;;;;;;0.80;0.40;;;;;;;9.15;100.00;96439.81;5114759;28;20207;-74
2024/01/03 02:47:17;;;;;;;0.37;0.20;;;;;;;9.19;100.00;96436.41;5115066;28;20229;-74
2024/01/03 02:49:44;;;;;;;1.07;0.40;;;;;;;9.13;100.00;96434.75;5114070;28;20599;-74
2024/01/03 02:52:10;;;;;;;0.40;0.30;;;;;;;8.99;100.00;96433.53;5114571;28;20281;-73
2024/01/03 02:54:36;;;;;;;0.73;0.30;;;;;;;8.84;100.00;96435.19;5114605;28;20206;-73
2024/01/03 02:57:03;;;;;;;0.60;0.30;;;;;;;8.77;100.00;96432.75;5114247;28;20213;-73
2024/01/03 02:59:30;;;;;;;0.30;0.30;;;;;;;8.72;100.00;96432.69;5114444;27;20250;-73
2024/01/03 03:01:58;;;;;;;0.30;0.30;;;;;;;8.60;100.00;96431.19;5114069;28;20213;-73
2024/01/03 03:04:24;;;;;;;0.63;0.40;;;;;;;8.51;100.00;96432.66;5114024;28;20670;-73
2024/01/03 03:06:51;;;;;;;0.40;0.27;;;;;;;8.52;100.00;96439.56;5113928;28;20684;-73
2024/01/03 03:09:17;;;;;;;0.20;0.20;;;;;;;8.50;100.00;96433.69;5114184;28;20591;-73
2024/01/03 03:11:46;;;;;;;1.07;0.30;;;;;;;8.48;100.00;96428.66;5113956;28;20575;-73
2024/01/03 03:14:14;;;;;;;0.30;0.30;;;;;;;8.48;100.00;96427.84;5113709;28;20682;-73
2024/01/03 03:16:40;;;;;;;0.20;0.20;;;;;;;8.44;100.00;96419.59;5114154;28;20203;-74
2024/01/03 03:19:07;;;;;;;1.23;0.20;;;;;;;8.38;100.00;96417.13;5113781;28;20727;-74
2024/01/03 03:21:33;;;;;;;0.87;0.30;;;;;;;8.35;100.00;96420.25;5113872;28;20595;-74
2024/01/03 03:24:00;;;;;;;0.60;0.30;;;;;;;8.23;100.00;96415.06;5114152;28;20570;-74
2024/01/03 03:26:27;;;;;;;0.20;0.20;;;;;;;8.12;100.00;96417.78;5114127;28;20204;-74
2024/01/03 03:28:53;;;;;;;0.60;0.30;;;;;;;8.06;100.00;96421.41;5113861;28;20233;-74
2024/01/03 03:31:19;;;;;;;1.13;0.40;;;;;;;8.02;100.00;96418.47;5113894;28;20206;-74
2024/01/03 03:33:46;;;;;;;0.50;0.30;;;;;;;7.97;100.00;96417.56;5114037;28;20209;-74
2024/01/03 03:36:13;;;;;;;1.23;0.50;;;;;;;7.97;100.00;96420.22;5113596;28;20699;-74
2024/01/03 03:38:40;;;;;;;0.47;0.40;;;;;;;8.03;100.00;96419.25;5114052;28;20199;-74
2024/01/03 03:41:11;;;;;;;0.40;0.40;;;;;;;8.00;100.00;96417.88;5113844;28;20227;-74
2024/01/03 03:43:39;;;;;;;0.27;0.27;;;;;;;8.07;100.00;96423.81;5113839;28;20203;-74
2024/01/03 03:46:06;;;;;;;0.50;0.40;;;;;;;8.18;100.00;96425.56;5113318;28;20746;-74
2024/01/03 03:48:33;;;;;;;1.13;0.53;;;;;;;8.19;100.00;96421.84;5113670;28;20211;-74
2024/01/03 03:51:01;;;;;;;1.23;0.40;;;;;;;8.14;100.00;96415.72;5113542;28;20632;-74
2024/01/03 03:53:28;;;;;;;1.23;0.33;;;;;;;8.21;100.00;96408.41;5113833;28;20288;-74
2024/01/03 03:55:54;;;;;;;0.63;0.30;;;;;;;8.25;100.00;96417.47;5113786;28;20207;-74
2024/01/03 03:58:21;;;;;;;2.83;0.50;;;;;;;8.27;100.00;96420.66;5113973;28;20203;-74
2024/01/03 04:00:47;;;;;;;1.80;0.50;;;;;;;8.35;100.00;96418.44;5117061;28;20233;-74
2024/01/03 04:03:13;;;;;;;0.93;0.40;;;;;;;8.39;100.00;96418.72;5117777;28;20203;-74
2024/01/03 04:05:40;;;;;;;0.40;0.40;;;;;;;8.25;100.00;96417.47;5117596;28;20199;-74
2024/01/03 04:08:07;;;;;;;0.90;0.30;;;;;;;8.32;100.00;96418.91;5117730;28;20207;-74
2024/01/03 04:10:33;;;;;;;2.83;0.40;;;;;;;8.31;100.00;96424.44;5117458;28;20231;-74
2024/01/03 04:12:59;;;;;;;0.60;0.40;;;;;;;8.54;100.00;96424.22;5117500;28;20204;-74
2024/01/03 04:15:26;;;;;;;0.80;0.40;;;;;;;8.49;100.00;96430.25;5117412;27;20203;-74
2024/01/03 04:17:52;;;;;;;1.90;0.60;;;;;;;8.41;100.00;96433.31;5117343;28;20209;-74
2024/01/03 04:20:20;;;;;;;1.13;0.80;;;;;;;8.59;100.00;96440.97;5117245;28;20230;-74
2024/01/03 04:22:47;;;;;;;2.03;0.63;;;;;;;8.79;100.00;96443.09;5116917;28;20246;-74
2024/01/03 04:25:13;;;;;;;3.07;0.57;;;;;;;8.75;100.00;96436.69;5117425;28;20207;-73
2024/01/03 04:27:40;;;;;;;2.23;0.70;;;;;;;8.88;100.00;96446.91;5117418;28;20209;-73
2024/01/03 04:30:06;;;;;;;3.07;0.60;;;;;;;8.86;100.00;96443.69;5117190;28;20238;-73
2024/01/03 04:32:33;;;;;;;0.77;0.60;;;;;;;8.88;100.00;96437.09;5117243;28;20202;-73
2024/01/03 04:34:59;;;;;;;2.17;0.80;;;;;;;8.74;100.00;96450.97;5117138;28;20203;-73
2024/01/03 04:37:26;;;;;;;1.27;0.50;;;;;;;8.72;100.00;96434.50;5117158;28;20201;-74
2024/01/03 04:39:53;;;;;;;2.17;0.80;;;;;;;8.73;100.00;96454.69;5116981;28;20592;-74
2024/01/03 04:42:19;;;;;;;2.30;0.70;;;;;;;9.03;100.00;96455.84;5116522;28;20692;-74
2024/01/03 04:44:46;;;;;;;2.93;1.00;;;;;;;8.92;100.00;96454.09;5116480;28;20572;-74
2024/01/03 04:47:12;;;;;;;2.60;0.80;;;;;;;8.92;100.00;96450.69;5116934;28;20209;-74
2024/01/03 04:49:38;;;;;;;2.93;0.80;;;;;;;8.96;100.00;96457.09;5116350;28;20227;-74
2024/01/03 04:52:05;;;;;;;1.40;0.63;;;;;;;9.08;100.00;96447.94;5116458;28;20208;-74
2024/01/03 04:54:32;;;;;;;4.57;0.77;;;;;;;9.19;100.00;96459.47;5116314;28;20199;-74
2024/01/03 04:56:58;;;;;;;3.47;0.87;;;;;;;8.98;100.00;96455.78;5116645;28;20233;-74
2024/01/03 04:59:24;;;;;;;4.57;1.17;;;;;;;9.20;100.00;96458.41;5116174;28;20583;-74
2024/01/03 05:01:51;;;;;;;3.30;0.90;;;;;;;9.12;100.00;96456.19;5116341;28;20221;-74
2024/01/03 05:04:17;;;;;;;1.87;0.77;;;;;;;9.12;100.00;96459.66;5115868;28;20702;-74
2024/01/03 05:06:43;;;;;;;2.97;0.80;;;;;;;9.01;100.00;96463.22;5115781;28;20542;-74
2024/01/03 05:09:10;;;;;;;2.37;1.00;;;;;;;8.87;100.00;96463.88;5116116;28;20227;-74
2024/01/03 05:11:36;;;;;;;1.57;0.60;;;;;;;8.74;100.00;96469.53;5115694;28;20199;-74
2024/01/03 05:14:02;;;;;;;1.73;0.80;;;;;;;8.60;100.00;96473.56;5116093;28;20211;-74
2024/01/03 05:16:29;;;;;;;3.83;1.00;;;;;;;8.65;100.00;96477.06;5115595;28;20203;-74
2024/01/03 05:18:55;;;;;;;1.93;0.83;;;;;;;8.93;100.00;96476.13;5115894;28;20211;-74
2024/01/03 05:21:22;;;;;;;5.10;0.90;;;;;;;9.11;100.00;96470.50;5115680;28;20217;-74
2024/01/03 05:23:48;;;;;;;2.67;0.90;;;;;;;9.15;100.00;96468.97;5116187;28;20194;-74
2024/01/03 05:26:15;;;;;;;4.23;0.80;;;;;;;9.38;100.00;96474.00;5115696;28;20544;-74
2024/01/03 05:28:41;;;;;;;3.57;0.83;;;;;;;9.25;100.00;96479.69;5115839;28;20206;-74
2024/01/03 05:31:07;;;;;;;3.67;0.90;;;;;;;9.16;100.00;96489.13;5116061;28;20231;-74
2024/01/03 05:33:34;;;;;;;4.77;0.90;;;;;;;9.09;100.00;96472.63;5115249;28;20662;-74
2024/01/03 05:36:00;;;;;;;4.97;0.80;;;;;;;9.06;100.00;96475.75;5115535;28;20213;-74
2024/01/03 05:38:26;;;;;;;3.40;0.97;;;;;;;9.13;100.00;96460.44;5115603;28;20199;-74
2024/01/03 05:40:53;;;;;;;3.87;0.90;;;;;;;9.14;100.00;96470.81;5115489;28;20215;-74
2024/01/03 05:43:21;;;;;;;4.43;1.03;;;;;;;9.16;100.00;96467.91;5115405;28;20210;-74
2024/01/03 05:45:47;;;;;;;3.10;1.07;;;;;;;9.04;100.00;96464.56;5115355;28;20222;-74
2024/01/03 05:48:13;;;;;;;3.30;0.83;;;;;;;9.14;100.00;96464.72;5115357;28;20199;-74
2024/01/03 05:50:40;;;;;;;4.37;1.00;;;;;;;9.17;100.00;96467.66;5114951;28;20763;-74
2024/01/03 05:53:06;;;;;;;3.43;0.90;;;;;;;9.16;100.00;96481.16;5114962;28;20662;-74
2024/01/03 05:55:32;;;;;;;3.83;0.90;;;;;;;9.21;100.00;96484.69;5114868;28;20693;-74
2024/01/03 05:57:59;;;;;;;2.53;0.70;;;;;;;9.27;100.00;96477.56;5114980;28;20573;-74
2024/01/03 06:00:25;;;;;;;3.30;1.00;;;;;;;9.36;100.00;96482.19;5115173;28;20728;-74
2024/01/03 06:02:51;;;;;;;1.97;0.80;;;;;;;9.33;100.00;96474.72;5114908;28;20203;-74
2024/01/03 06:05:18;;;;;;;2.83;0.80;;;;;;;9.49;100.00;96488.94;5114666;28;20215;-74
2024/01/03 06:07:45;;;;;;;2.83;0.93;;;;;;;9.37;100.00;96488.31;5114704;28;20681;-74
2024/01/03 06:10:11;;;;;;;3.07;1.00;;;;;;;9.23;100.00;96489.75;5114988;28;20276;-74
2024/01/03 06:12:38;;;;;;;4.53;1.33;;;;;;;9.46;100.00;96498.22;5114682;28;20256;-74
2024/01/03 06:15:06;;;;;;;1.87;0.90;;;;;;;9.37;100.00;96489.09;5114709;28;20218;-74
2024/01/03 06:17:33;;;;;;;2.50;0.70;;;;;;;9.34;100.00;96502.88;5114764;28;20207;-73
2024/01/03 06:19:59;;;;;;;2.30;0.80;;;;;;;9.36;100.00;96490.16;5115377;28;20222;-73
2024/01/03 06:22:25;;;;;;;3.37;1.10;;;;;;;9.30;100.00;96496.47;5113869;28;20301;-73
2024/01/03 06:24:52;;;;;;;4.60;1.27;;;;;;;9.15;100.00;96495.47;5113747;28;20573;-73
2024/01/03 06:27:18;;;;;;;1.50;0.80;;;;;;;9.03;100.00;96489.50;5114149;28;20217;-73
2024/01/03 06:29:44;;;;;;;2.87;0.90;;;;;;;8.89;100.00;96488.25;5114598;28;20231;-73
2024/01/03 06:32:11;;;;;;;1.33;0.80;;;;;;;8.93;100.00;96489.38;5114635;28;20210;-73
2024/01/03 06:34:37;;;;;;;2.70;0.70;;;;;;;8.98;100.00;96478.81;5114139;28;20359;-74
2024/01/03 06:37:04;;;;;;;2.30;0.53;;;;;;;8.82;100.00;96485.78;5114217;28;20204;-74
2024/01/03 06:39:30;;;;;;;2.00;0.70;;;;;;;8.87;100.00;96495.66;5113989;28;20702;-74
2024/01/03 06:41:56;;;;;;;2.67;0.70;;;;;;;8.95;100.00;96484.59;5113717;28;20684;-74
2024/01/03 06:44:23;;;;;;;3.90;0.90;;;;;;;8.85;100.00;96485.31;5114083;28;20666;-74
2024/01/03 06:46:51;;;;;;;2.80;0.70;;;;;;;8.88;100.00;96489.31;5114752;28;20207;-74
2024/01/03 06:49:17;;;;;;;3.93;0.80;;;;;;;8.75;100.00;96484.38;5114311;28;20235;-74
2024/01/03 06:51:44;;;;;;;3.77;0.90;;;;;;;8.71;100.00;96493.84;5114098;28;20757;-74
2024/01/03 06:54:11;;;;;;;2.30;0.80;;;;;;;8.59;100.00;96491.31;5114277;28;20211;-74
2024/01/03 06:56:37;;;;;;;3.30;0.70;;;;;;;8.49;100.00;96496.47;5114154;27;20211;-74
2024/01/03 06:59:03;;;;;;;3.00;1.00;;;;;;;8.42;100.00;96497.69;5113683;28;20673;-74
2024/01/03 07:01:30;;;;;;;2.50;0.77;;;;;;;8.60;100.00;96497.41;5113955;28;20199;-74
2024/01/03 07:03:58;;;;;;;2.43;0.77;;;;;;;8.56;100.00;96504.25;5114047;28;20285;-74
2024/01/03 07:06:25;;;;;;;4.20;0.90;;;;;;;8.51;100.00;96502.31;5114002;28;20650;-74
2024/01/03 07:08:53;;;;;;;2.73;0.80;;;;;;;8.33;100.00;96491.97;5113077;28;20199;-74
2024/01/03 07:11:18;;;;;;;4.63;1.00;;;;;;;8.23;100.00;96496.34;5113648;28;20588;-74
2024/01/03 07:13:45;;;;;;;2.87;1.07;;;;;;;8.31;100.00;96502.03;5113872;28;20213;-74
2024/01/03 07:16:12;;;;;;;2.27;0.97;;;;;;;8.27;100.00;96511.50;5113676;28;20203;-74
2024/01/03 07:18:38;;;;;;;4.57;0.80;;;;;;;8.18;100.00;96506.78;5113362;28;20216;-74
2024/01/03 07:21:05;;;;;;;1.83;0.90;;;;;;;8.22;100.00;96513.25;5113363;28;20225;-74
2024/01/03 07:23:31;;;;;;;3.10;0.70;;;;;;;8.27;100.00;96513.31;5113662;28;20210;-74
2024/01/03 07:25:58;;;;;;;4.43;0.97;;;;;;;8.26;100.00;96507.25;5113536;28;20203;-74
2024/01/03 07:28:24;;;;;;;1.27;0.83;;;;;;;8.31;100.00;96509.97;5114586;28;20225;-74
2024/01/03 07:30:51;;;;;;;4.13;1.17;;;;;;;8.31;100.00;96509.97;5113264;28;20626;-74
2024/01/03 07:33:17;;;;;;;1.67;0.60;;;;;;;8.47;100.00;96497.75;5113827;28;20199;-74
2024/01/03 07:35:44;;;;;;;2.57;0.80;;;;;;;8.72;100.00;96498.91;5113549;28;20206;-74
2024/01/03 07:38:10;;;;;;;3.17;1.00;;;;;;;9.01;100.00;96508.28;5113041;28;20550;-74
2024/01/03 07:40:36;;;;;;;2.20;1.10;;;;;;;9.00;100.00;96511.22;5113453;28;20219;-74
2024/01/03 07:43:03;;;;;;;3.23;0.97;;;;;;;9.07;100.00;96507.31;5113567;28;20210;-74
2024/01/03 07:45:29;;;;;;;3.47;1.00;;;;;;;9.06;100.00;96502.25;5113285;28;20207;-74
2024/01/03 07:47:56;;;;;;;2.67;0.77;;;;;;;9.03;100.00;96503.56;5113299;28;20206;-74
2024/01/03 07:50:22;;;;;;;3.07;1.00;;;;;;;9.19;100.00;96499.25;5113181;28;20339;-74
2024/01/03 07:52:48;;;;;;;1.57;0.60;;;;;;;9.28;100.00;96500.41;5113008;28;20206;-74
2024/01/03 07:55:15;;;;;;;2.53;0.60;;;;;;;9.21;100.00;96515.69;5113510;28;20209;-74
2024/01/03 07:57:42;;;;;;;1.73;0.70;;;;;;;9.25;100.00;96508.84;5113451;28;20290;-74
2024/01/03 08:00:09;;;;;;;3.40;0.70;;;;;;;9.21;100.00;96515.69;5113078;28;20259;-74
2024/01/03 08:02:35;;;;;;;4.00;0.80;;;;;;;9.21;100.00;96513.84;5113658;28;20311;-74
2024/01/03 08:05:03;;;;;;;2.77;0.77;;;;;;;9.05;100.00;96508.63;5113515;28;20206;-74
2024/01/03 08:07:29;;;;;;;2.03;0.67;;;;;;;9.13;100.00;96508.97;5113144;28;20207;-74
2024/01/03 08:09:55;;;;;;;4.33;0.90;;;;;;;9.12;100.00;96509.22;5113303;28;20239;-74
2024/01/03 08:12:22;;;;;;;0.70;0.50;;;;;;;9.15;100.00;96500.78;5113104;28;20203;-74
2024/01/03 08:14:48;;;;;;;2.30;0.73;;;;;;;9.12;100.00;96506.56;5113143;28;20199;-74
2024/01/03 08:17:14;;;;;;;1.67;0.63;;;;;;;9.16;100.00;96507.69;5113184;28;20203;-74
2024/01/03 08:19:41;;;;;;;2.27;0.70;;;;;;;9.23;100.00;96500.34;5113211;28;20230;-74
2024/01/03 08:22:07;;;;;;;2.50;0.93;;;;;;;9.29;100.00;96502.00;5112727;28;20310;-74
2024/01/03 08:24:34;;;;;;;1.53;0.70;;;;;;;9.58;100.00;96498.06;5113105;28;20206;-74
2024/01/03 08:27:00;;;;;;;4.73;0.90;;;;;;;9.76;100.00;96498.53;5113075;28;20222;-74
2024/01/03 08:29:28;;;;;;;2.13;0.60;;;;;;;9.77;100.00;96502.00;5112624;28;20584;-74
2024/01/03 08:31:55;;;;;;;2.20;0.80;;;;;;;9.87;100.00;96481.63;5112883;28;20220;-74
2024/01/03 08:34:22;;;;;;;2.60;0.77;;;;;;;9.82;100.00;96497.50;5112676;28;20549;-74
2024/01/03 08:36:48;;;;;;;2.17;0.90;;;;;;;9.93;100.00;96495.75;5112889;28;20204;-74
2024/01/03 08:39:15;;;;;;;1.63;0.90;;;;;;;9.93;100.00;96490.44;5112500;28;20724;-74
2024/01/03 08:41:41;;;;;;;2.20;0.67;;;;;;;9.93;100.00;96490.44;5112971;28;20199;-74
2024/01/03 08:44:08;;;;;;;1.67;1.00;;;;;;;9.92;100.00;96483.53;5112615;28;20199;-74
2024/01/03 08:46:44;;;;;;;1.67;0.70;;;;;;;9.83;100.00;96490.34;5113774;28;20203;-74
2024/01/03 08:49:11;;;;;;;5.50;2.13;;;;;;;9.95;100.00;96496.28;5116622;28;20327;-74
2024/01/03 08:51:37;;;;;;;1.77;0.83;;;;;;;9.85;100.00;96496.19;5115787;27;20223;-74
2024/01/03 08:54:04;;;;;;;2.43;1.00;;;;;;;9.75;100.00;96474.88;5116059;28;20202;-73
2024/01/03 08:56:30;;;;;;;3.87;0.77;;;;;;;9.69;100.00;96482.00;5115987;28;20662;-74
2024/01/03 08:58:56;;;;;;;2.17;0.90;;;;;;;9.67;100.00;96496.56;5116014;28;20204;-73
2024/01/03 09:01:27;;;;;;;2.57;0.87;;;;;;;9.64;100.00;96510.34;5115451;28;20668;-73
2024/01/03 09:03:53;;;;;;;4.90;0.97;;;;;;;9.66;100.00;96508.22;5116216;27;20184;-74
2024/01/03 09:06:22;;;;;;;1.63;0.70;;;;;;;9.90;100.00;96502.38;5115783;28;20206;-74
2024/01/03 09:08:50;;;;;;;1.93;0.70;;;;;;;9.92;100.00;96513.53;5115254;28;20207;-74
2024/01/03 09:11:23;;;;;;;3.00;0.73;;;;;;;10.07;100.00;96504.94;5115693;28;20262;-73
2024/01/03 09:13:50;;;;;;;2.47;0.93;;;;;;;10.09;100.00;96493.00;5115849;28;20658;-74
2024/01/03 09:16:22;;;;;;;3.40;0.70;;;;;;;10.12;100.00;96500.47;5116058;28;20211;-74
2024/01/03 09:18:49;;;;;;;1.23;0.60;;;;;;;10.26;100.00;96490.19;5116042;28;20208;-73
2024/01/03 09:21:16;;;;;;;2.37;0.83;;;;;;;10.14;100.00;96492.25;5115669;28;20210;-73
2024/01/03 09:23:43;;;;;;;2.00;0.60;;;;;;;10.08;100.00;96496.72;5115643;28;20545;-73
2024/01/03 09:26:11;;;;;;;1.57;0.60;;;;;;;9.99;100.00;96505.34;5115797;28;20199;-73
2024/01/03 09:28:41;;;;;;;1.87;0.67;;;;;;;9.99;100.00;96511.47;5115342;28;20199;-73
2024/01/03 09:31:08;;;;;;;2.73;0.83;;;;;;;10.02;100.00;96512.81;5115586;28;20262;-73
2024/01/03 09:33:35;;;;;;;1.03;0.63;;;;;;;10.02;100.00;96531.41;5115399;28;20239;-73
2024/01/03 09:36:01;;;;;;;5.03;0.77;;;;;;;9.94;100.00;96515.94;5115637;28;20603;-73
2024/01/03 09:38:28;;;;;;;3.30;0.70;;;;;;;9.78;100.00;96514.19;5115420;28;20203;-73
2024/01/03 09:40:54;;;;;;;1.70;0.63;;;;;;;9.76;100.00;96537.50;5115455;28;20215;-73
2024/01/03 09:43:24;;;;;;;1.73;0.60;;;;;;;9.79;100.00;96521.09;5115127;28;20209;-73
2024/01/03 09:45:51;;;;;;;2.57;0.60;;;;;;;9.84;100.00;96539.72;5115034;28;20207;-73
2024/01/03 09:48:18;;;;;;;3.53;0.63;;;;;;;9.84;100.00;96523.81;5115768;28;20200;-73
2024/01/03 09:50:45;;;;;;;1.40;0.60;;;;;;;9.90;100.00;96536.88;5115493;28;20704;-73
2024/01/03 09:53:14;;;;;;;0.90;0.60;;;;;;;9.85;100.00;96522.75;5115217;28;20544;-73
2024/01/03 09:55:43;;;;;;;0.73;0.60;;;;;;;9.78;100.00;96532.78;5115040;28;20199;-73
2024/01/03 09:58:10;;;;;;;1.97;0.60;;;;;;;9.76;100.00;96538.31;5114758;28;20229;-73
2024/01/03 10:00:36;;;;;;;1.10;0.53;;;;;;;9.70;100.00;96526.06;5115003;28;20219;-73
2024/01/03 10:03:03;;;;;;;0.43;0.40;;;;;;;9.82;100.00;96533.88;5115053;28;20205;-73
2024/01/03 10:05:29;;;;;;;1.87;0.53;;;;;;;9.84;100.00;96534.41;5114793;28;20217;-74
2024/01/03 10:07:56;;;;;;;3.07;0.80;;;;;;;9.81;100.00;96534.91;5114888;28;20203;-74
2024/01/03 10:10:34;;;;;;;1.47;0.70;;;;;;;9.89;100.00;96519.34;5114957;28;20226;-73
2024/01/03 10:13:24;;;;;;;0.83;0.47;;;;;;;9.92;100.00;96528.66;5114974;28;20183;-73
2024/01/03 10:15:51;;;;;;;1.87;0.60;;;;;;;9.90;100.00;96538.72;5114874;28;20245;-73
2024/01/03 10:18:19;;;;;;;1.10;0.70;;;;;;;10.00;100.00;96542.28;5114170;28;20669;-73
2024/01/03 10:20:46;;;;;;;1.47;0.63;;;;;;;10.09;100.00;96535.47;5114388;27;20219;-73
2024/01/03 10:23:19;;;;;;;1.93;0.90;;;;;;;10.12;100.00;96536.81;5114532;28;20215;-74
2024/01/03 10:25:46;;;;;;;1.97;0.83;;;;;;;10.28;100.00;96530.59;5114573;28;20617;-73
2024/01/03 10:28:17;;;;;;;3.77;1.03;;;;;;;10.16;100.00;96522.00;5114572;28;20301;-73
2024/01/03 10:30:43;;;;;;;1.20;0.80;;;;;;;10.01;100.00;96529.81;5115089;27;20257;-73
2024/01/03 10:33:11;;;;;;;2.93;0.70;;;;;;;9.96;100.00;96527.13;5114310;28;20234;-73
2024/01/03 10:35:40;;;;;;;1.67;0.53;;;;;;;9.92;100.00;96541.94;5114480;28;20199;-73
2024/01/03 10:38:06;;;;;;;2.83;0.70;;;;;;;9.95;100.00;96534.25;5114248;28;20264;-74
2024/01/03 10:40:36;;;;;;;1.33;0.60;;;;;;;9.98;100.00;96525.81;5114102;28;20219;-73
2024/01/03 10:43:03;;;;;;;1.47;0.77;;;;;;;10.09;100.00;96532.81;5114353;28;20612;-73
2024/01/03 10:45:31;;;;;;;1.67;0.70;;;;;;;10.19;100.00;96534.78;5114442;28;20206;-73
2024/01/03 10:47:58;;;;;;;1.17;0.70;;;;;;;10.29;100.00;96538.31;5113841;28;20657;-73
2024/01/03 10:50:24;;;;;;;2.13;0.60;;;;;;;10.50;100.00;96547.25;5114006;28;20230;-73
2024/01/03 10:52:59;;;;;;;2.73;0.70;;;;;;;10.54;100.00;96537.72;5114050;28;20210;-73
2024/01/03 10:55:39;;;;;;;2.43;0.80;;;;;;;10.66;100.00;96533.00;5113813;28;20187;-73
2024/01/03 10:58:14;;;;;;;2.17;0.90;;;;;;;10.52;100.00;96545.13;5113900;28;20317;-74
2024/01/03 11:00:46;;;;;;;2.73;0.80;;;;;;;10.54;100.00;96545.69;5114964;28;20218;-73
2024/01/03 11:03:25;;;;;;;1.70;0.70;;;;;;;10.51;100.00;96546.19;5113756;28;20187;-73
2024/01/03 11:06:40;;;;;;;1.97;0.60;;;;;;;10.54;100.00;96549.13;5113597;28;20289;-73
2024/01/03 11:09:08;;;;;;;0.80;0.60;;;;;;;10.74;100.00;96536.00;5100130;28;20230;-73
2024/01/03 11:11:39;;;;;;;1.77;0.80;;;;;;;10.75;100.00;96537.59;5113537;28;20622;-73
2024/01/03 11:14:20;;;;;;;1.63;0.50;;;;;;;10.70;100.00;96544.72;5113923;28;20200;-73
2024/01/03 11:16:46;;;;;;;2.17;0.60;;;;;;;10.74;100.00;96543.97;5113963;28;20203;-73
2024/01/03 11:19:16;;;;;;;2.37;0.50;;;;;;;10.89;100.00;96551.22;5113918;28;20227;-74
2024/01/03 11:21:47;;;;;;;2.07;0.60;;;;;;;11.02;100.00;96559.56;5113344;28;20207;-73
2024/01/03 11:24:19;;;;;;;1.63;0.63;;;;;;;11.16;100.00;96561.75;5113314;28;20504;-73
2024/01/03 11:26:56;;;;;;;1.77;0.70;;;;;;;11.14;100.00;96548.72;5113433;28;20216;-73
2024/01/03 11:29:38;;;;;;;1.60;0.60;;;;;;;10.98;100.00;96557.66;5113061;28;20721;-73
2024/01/03 11:32:17;;;;;;;4.50;0.90;;;;;;;10.95;100.00;96552.88;5113204;28;20230;-73